Time;durP1;ratioP1;P1;durP2;ratioP2;P2;SDS_P1;SDS_P2;PMS_P1;PMS_P2;Temp;Humidity;BMP_temperature;BMP_pressure;BME280_temperature;BME280_humidity;BME280_pressure;Samples;Min_cycle;Max_cycle;Signal;HPM_P1;HPM_P2
2022/04/06 00:00:35;;;;;;;6.53;5.93;;;9.80;97.00;;;;;;6327746;28;20533;-62
2022/04/06 00:03:38;;;;;;;8.83;6.40;;;9.80;97.10;;;;;;6328300;28;20469;-62
2022/04/06 00:06:41;;;;;;;8.17;6.87;;;9.80;97.20;;;;;;6328424;28;20468;-62
2022/04/06 00:09:52;;;;;;;8.33;5.97;;;9.80;97.20;;;;;;6325676;28;20475;-62
2022/04/06 00:12:56;;;;;;;7.23;6.33;;;9.80;97.30;;;;;;6327466;28;20941;-61
2022/04/06 00:16:01;;;;;;;7.63;6.57;;;9.80;97.40;;;;;;6312962;28;20952;-62
2022/04/06 00:19:04;;;;;;;10.30;7.50;;;9.80;97.50;;;;;;6327487;28;20472;-62
2022/04/06 00:22:07;;;;;;;9.03;7.27;;;9.80;97.50;;;;;;6328042;28;20508;-62
2022/04/06 00:25:11;;;;;;;7.90;7.10;;;9.80;97.50;;;;;;6328739;28;20468;-62
2022/04/06 00:28:14;;;;;;;8.83;7.97;;;9.80;97.50;;;;;;6331413;28;20484;-62
2022/04/06 00:31:18;;;;;;;7.03;6.40;;;9.80;97.40;;;;;;6330249;28;20476;-61
2022/04/06 00:35:28;;;;;;;8.53;7.13;;;9.80;97.40;;;;;;6330677;28;20487;-62
2022/04/06 00:37:45;;;;;;;9.87;6.50;;;9.80;97.50;;;;;;6332648;28;20468;-63
2022/04/06 00:40:48;;;;;;;7.20;5.60;;;9.70;97.50;;;;;;6332513;28;20483;-62
2022/04/06 00:44:11;;;;;;;6.93;6.30;;;9.60;97.60;;;;;;6329919;28;20480;-62
2022/04/06 00:47:16;;;;;;;6.77;6.13;;;9.50;97.80;;;;;;6328194;28;20469;-62
2022/04/06 00:50:20;;;;;;;7.17;6.50;;;9.50;98.00;;;;;;6327589;28;20818;-61
2022/04/06 00:53:25;;;;;;;6.73;6.07;;;9.50;98.40;;;;;;6327988;28;20986;-62
2022/04/06 00:56:29;;;;;;;6.30;5.70;;;9.50;98.20;;;;;;6327689;28;20582;-62
2022/04/06 00:59:32;;;;;;;6.70;5.37;;;9.50;98.20;;;;;;6326836;28;20472;-62
2022/04/06 01:02:37;;;;;;;9.93;6.37;;;9.50;98.20;;;;;;6326836;28;20472;-62
2022/04/06 01:05:40;;;;;;;7.30;6.07;;;9.40;98.20;;;;;;6328934;28;20460;-62
2022/04/06 01:08:43;;;;;;;7.87;6.10;;;9.40;98.30;;;;;;6327998;28;20459;-62
2022/04/06 01:11:48;;;;;;;7.10;5.67;;;9.30;98.40;;;;;;6327215;28;20451;-62
2022/04/06 01:14:51;;;;;;;7.30;5.27;;;9.20;98.70;;;;;;6326723;28;20923;-61
2022/04/06 01:17:56;;;;;;;6.90;5.40;;;9.10;98.80;;;;;;6326701;28;20889;-61
2022/04/06 01:20:59;;;;;;;5.70;5.17;;;9.10;99.10;;;;;;6312941;28;20486;-61
2022/04/06 01:24:03;;;;;;;7.63;5.90;;;9.10;99.30;;;;;;6326859;28;20464;-62
2022/04/06 01:27:07;;;;;;;6.57;5.93;;;9.10;99.40;;;;;;6327061;28;20460;-63
2022/04/06 01:30:10;;;;;;;6.60;5.70;;;9.10;99.50;;;;;;6327014;28;20475;-63
2022/04/06 01:33:13;;;;;;;5.90;5.00;;;9.00;99.50;;;;;;6326492;28;20472;-63
2022/04/06 01:36:17;;;;;;;7.90;5.30;;;9.00;99.60;;;;;;6326469;28;20994;-62
2022/04/06 01:39:21;;;;;;;7.87;5.87;;;9.00;99.70;;;;;;6326694;28;20469;-62
2022/04/06 01:42:24;;;;;;;6.43;5.83;;;9.00;99.70;;;;;;6326516;28;20472;-62
2022/04/06 01:45:27;;;;;;;5.53;4.90;;;9.00;99.70;;;;;;6326669;28;20476;-62
2022/04/06 01:48:30;;;;;;;5.77;5.17;;;9.00;99.80;;;;;;6326163;28;20470;-62
2022/04/06 01:54:59;;;;;;;6.17;5.57;;;8.90;99.90;;;;;;6325790;28;20461;-62
2022/04/06 01:58:02;;;;;;;9.73;5.90;;;8.90;99.90;;;;;;6326179;28;20479;-62
2022/04/06 02:01:05;;;;;;;6.03;5.07;;;8.80;99.90;;;;;;6325782;28;20964;-62
2022/04/06 02:04:14;;;;;;;9.37;6.10;;;8.80;99.90;;;;;;6326041;28;20483;-62
2022/04/06 02:07:17;;;;;;;5.83;5.23;;;8.80;99.90;;;;;;6325944;28;20503;-62
2022/04/06 02:10:22;;;;;;;6.23;4.90;;;8.70;99.90;;;;;;6325867;28;20468;-63
2022/04/06 02:13:26;;;;;;;7.10;5.50;;;8.70;99.90;;;;;;6325341;28;20479;-63
2022/04/06 02:16:30;;;;;;;5.50;5.00;;;8.70;99.90;;;;;;6325444;28;20789;-62
2022/04/06 02:19:34;;;;;;;6.30;5.70;;;8.70;99.90;;;;;;6326530;28;20464;-63
2022/04/06 02:22:38;;;;;;;5.90;5.30;;;8.70;99.90;;;;;;6325215;28;20484;-62
2022/04/06 02:25:42;;;;;;;5.57;5.07;;;8.60;99.90;;;;;;6315690;28;20475;-63
2022/04/06 02:28:45;;;;;;;7.87;5.33;;;8.70;99.90;;;;;;6325412;28;20803;-62
2022/04/06 02:31:48;;;;;;;6.33;5.40;;;8.60;99.90;;;;;;6325270;28;20464;-62
2022/04/06 02:34:51;;;;;;;6.30;5.33;;;8.60;99.90;;;;;;6324859;28;20840;-62
2022/04/06 02:37:54;;;;;;;4.83;4.33;;;8.60;99.90;;;;;;6325028;28;20468;-63
2022/04/06 02:40:59;;;;;;;6.50;5.90;;;8.70;99.90;;;;;;6324967;28;20990;-62
2022/04/06 02:44:02;;;;;;;6.13;5.13;;;8.60;99.90;;;;;;6324868;28;20994;-63
2022/04/06 02:47:06;;;;;;;7.40;4.63;;;8.60;99.90;;;;;;6325971;28;20810;-61
2022/04/06 02:50:09;;;;;;;5.00;4.30;;;8.50;99.90;;;;;;6325103;28;20480;-62
2022/04/06 02:53:12;;;;;;;6.40;5.03;;;8.50;99.90;;;;;;6324605;28;20477;-63
2022/04/06 02:56:16;;;;;;;6.50;5.27;;;8.50;99.90;;;;;;6324718;28;20831;-62
2022/04/06 02:59:19;;;;;;;5.63;4.90;;;8.40;99.90;;;;;;6324668;28;20955;-62
2022/04/06 03:02:22;;;;;;;6.60;5.07;;;8.40;99.90;;;;;;6324655;28;20487;-62
2022/04/06 03:05:25;;;;;;;5.17;4.67;;;8.40;99.90;;;;;;6324754;28;20480;-61
2022/04/06 03:08:29;;;;;;;4.63;4.23;;;8.40;99.90;;;;;;6324663;28;20479;-61
2022/04/06 03:11:33;;;;;;;4.23;3.90;;;8.30;99.90;;;;;;6324821;28;20483;-62
2022/04/06 03:14:37;;;;;;;4.60;4.20;;;8.30;99.90;;;;;;6324294;28;20959;-62
2022/04/06 03:17:40;;;;;;;6.67;4.70;;;8.30;99.90;;;;;;6324662;28;20456;-62
2022/04/06 03:20:43;;;;;;;5.90;4.67;;;8.40;99.90;;;;;;6324426;28;20916;-61
2022/04/06 03:23:46;;;;;;;5.10;4.50;;;8.40;99.90;;;;;;6325729;28;20468;-62
2022/04/06 03:26:50;;;;;;;8.10;5.40;;;8.40;99.90;;;;;;6320048;28;20460;-62
2022/04/06 03:29:53;;;;;;;6.13;5.53;;;8.40;99.90;;;;;;6329715;28;20440;-62
2022/04/06 03:32:56;;;;;;;5.93;5.33;;;8.40;99.90;;;;;;6329377;28;20739;-61
2022/04/06 03:36:00;;;;;;;6.27;5.37;;;8.30;99.90;;;;;;6329680;28;20463;-61
2022/04/06 03:39:03;;;;;;;5.50;5.00;;;8.30;99.90;;;;;;6329626;28;20475;-61
2022/04/06 03:42:08;;;;;;;6.73;5.43;;;8.30;99.90;;;;;;6330825;28;20475;-61
2022/04/06 03:45:11;;;;;;;5.70;5.13;;;8.20;99.90;;;;;;6322935;28;20601;-61
2022/04/06 03:48:14;;;;;;;6.00;5.40;;;8.20;99.90;;;;;;6329340;28;20463;-60
2022/04/06 03:51:17;;;;;;;6.00;5.40;;;8.20;99.90;;;;;;6329257;28;20467;-60
2022/04/06 03:54:20;;;;;;;5.73;5.23;;;8.20;99.90;;;;;;6328826;28;20864;-61
2022/04/06 03:57:25;;;;;;;6.03;5.20;;;8.10;99.90;;;;;;6329827;28;20468;-60
2022/04/06 04:00:28;;;;;;;7.73;7.03;;;8.10;99.90;;;;;;6329032;28;20472;-60
2022/04/06 04:03:31;;;;;;;5.93;5.17;;;8.10;99.90;;;;;;6329211;28;20483;-60
2022/04/06 04:06:34;;;;;;;5.47;4.97;;;8.10;99.90;;;;;;6328639;28;21054;-60
2022/04/06 04:09:38;;;;;;;6.13;5.53;;;8.00;99.90;;;;;;6328848;28;20472;-60
2022/04/06 04:12:43;;;;;;;5.67;5.07;;;7.90;99.90;;;;;;6328312;28;20928;-61
2022/04/06 04:15:46;;;;;;;5.80;5.30;;;7.90;99.90;;;;;;6328238;28;20967;-61
2022/04/06 04:18:49;;;;;;;5.70;5.20;;;7.90;99.90;;;;;;6328711;28;20483;-61
2022/04/06 04:21:52;;;;;;;5.33;4.83;;;8.00;99.90;;;;;;6328374;28;20487;-61
2022/04/06 04:24:55;;;;;;;5.63;5.07;;;8.00;99.90;;;;;;6328409;28;20490;-61
2022/04/06 04:27:59;;;;;;;10.20;5.97;;;7.90;99.90;;;;;;6329043;28;20956;-61
2022/04/06 04:31:02;;;;;;;9.87;6.13;;;7.90;99.90;;;;;;6330511;28;20480;-61
2022/04/06 04:34:06;;;;;;;7.43;6.50;;;8.00;99.90;;;;;;6327817;28;20476;-61
2022/04/06 04:37:09;;;;;;;5.90;5.13;;;8.00;99.90;;;;;;6328244;28;20980;-61
2022/04/06 04:40:12;;;;;;;9.07;5.53;;;8.00;99.90;;;;;;6328980;28;20473;-60
2022/04/06 04:43:17;;;;;;;8.07;6.10;;;8.00;99.90;;;;;;6329560;28;21052;-61
2022/04/06 04:46:20;;;;;;;6.03;5.43;;;8.10;99.90;;;;;;6331045;28;20487;-61
2022/04/06 04:49:24;;;;;;;7.80;6.90;;;8.20;99.90;;;;;;6331485;28;20468;-61
2022/04/06 04:52:27;;;;;;;6.10;5.53;;;8.20;99.90;;;;;;6327353;28;20832;-61
2022/04/06 04:55:30;;;;;;;6.80;5.37;;;8.30;99.90;;;;;;6327418;28;20472;-61
2022/04/06 04:58:35;;;;;;;6.37;5.40;;;8.30;99.90;;;;;;6327670;28;20479;-61
2022/04/06 05:01:38;;;;;;;6.67;6.10;;;8.40;99.90;;;;;;6327320;28;21002;-61
2022/04/06 05:04:41;;;;;;;6.77;6.07;;;8.40;99.90;;;;;;6288024;23;20808;-61
2022/04/06 05:07:45;;;;;;;7.10;6.40;;;8.40;99.90;;;;;;6275947;28;20470;-61
2022/04/06 05:10:48;;;;;;;7.70;7.10;;;8.50;99.90;;;;;;6277141;28;20474;-62
2022/04/06 05:13:52;;;;;;;8.10;7.07;;;8.50;99.90;;;;;;6276672;28;20474;-61
2022/04/06 05:16:55;;;;;;;7.50;5.97;;;8.60;99.90;;;;;;6275299;28;20490;-61
2022/04/06 05:19:58;;;;;;;11.93;5.70;;;8.60;99.90;;;;;;6275537;28;21296;-61
2022/04/06 05:23:02;;;;;;;8.27;5.73;;;8.70;99.90;;;;;;6277354;28;20553;-61
2022/04/06 05:26:05;;;;;;;7.10;6.27;;;8.80;99.90;;;;;;6276651;28;20500;-61
2022/04/06 05:29:09;;;;;;;6.20;5.63;;;8.80;99.90;;;;;;6275539;28;20488;-61
2022/04/06 05:32:12;;;;;;;7.03;6.40;;;8.90;99.90;;;;;;6276532;28;20485;-62
2022/04/06 05:35:16;;;;;;;6.60;6.00;;;9.00;99.90;;;;;;6277375;28;20481;-61
2022/04/06 05:38:19;;;;;;;7.23;6.53;;;9.10;99.90;;;;;;6272185;28;20482;-62
2022/04/06 05:41:22;;;;;;;7.03;5.70;;;9.20;99.90;;;;;;6276164;28;20818;-61
2022/04/06 05:44:26;;;;;;;6.40;5.80;;;9.20;99.90;;;;;;6276014;28;21252;-61
2022/04/06 05:47:30;;;;;;;6.70;6.00;;;9.30;99.80;;;;;;6273770;28;20478;-61
2022/04/06 05:50:33;;;;;;;7.63;6.90;;;9.50;99.70;;;;;;6278649;28;20474;-61
2022/04/06 05:53:36;;;;;;;10.03;6.60;;;9.50;99.50;;;;;;6276072;28;20489;-60
2022/04/06 05:56:39;;;;;;;5.47;5.03;;;9.70;99.40;;;;;;6276569;28;20446;-61
2022/04/06 05:59:44;;;;;;;6.20;5.40;;;9.70;99.10;;;;;;6280366;28;20451;-61
2022/04/06 06:02:48;;;;;;;7.10;5.90;;;9.70;99.00;;;;;;6283891;28;20966;-61
2022/04/06 06:05:51;;;;;;;6.20;5.60;;;9.80;99.10;;;;;;6277654;28;20482;-62
2022/04/06 06:08:54;;;;;;;5.97;5.37;;;9.80;99.10;;;;;;6276152;28;20473;-62
2022/04/06 06:11:58;;;;;;;10.00;5.17;;;9.90;99.20;;;;;;6278867;28;20887;-62
2022/04/06 06:15:02;;;;;;;6.67;5.93;;;10.00;98.70;;;;;;6277820;28;21001;-62
2022/04/06 06:18:06;;;;;;;6.60;4.67;;;10.20;98.50;;;;;;6276163;28;20832;-62
2022/04/06 06:21:09;;;;;;;7.60;4.53;;;10.30;98.50;;;;;;6276138;28;20477;-65
2022/04/06 06:24:12;;;;;;;6.70;4.33;;;10.70;98.20;;;;;;6276181;28;20474;-65
2022/04/06 06:27:19;;;;;;;5.87;3.70;;;11.10;97.50;;;;;;6274741;28;20458;-63
2022/04/06 06:30:26;;;;;;;8.80;4.10;;;11.70;97.50;;;;;;6274853;28;20474;-61
2022/04/06 06:33:30;;;;;;;8.20;3.80;;;12.40;96.70;;;;;;6275181;28;20477;-62
2022/04/06 06:36:35;;;;;;;10.83;3.50;;;14.10;95.10;;;;;;6274824;28;20497;-62
2022/04/06 06:39:38;;;;;;;4.17;3.03;;;16.30;90.70;;;;;;6261458;28;20795;-62
2022/04/06 06:42:41;;;;;;;3.70;2.87;;;18.20;81.60;;;;;;6280619;28;20485;-61
2022/04/06 06:45:46;;;;;;;4.70;3.03;;;19.40;71.90;;;;;;6288448;28;20564;-62
2022/04/06 06:48:50;;;;;;;6.37;3.43;;;20.70;64.70;;;;;;6275712;28;20970;-62
2022/04/06 06:51:53;;;;;;;5.50;2.67;;;21.80;59.70;;;;;;6276100;28;20228;-62
2022/04/06 06:54:56;;;;;;;4.63;3.57;;;23.10;54.20;;;;;;6275140;28;20254;-63
2022/04/06 06:57:59;;;;;;;7.17;4.53;;;24.10;50.80;;;;;;6275081;28;20232;-63
2022/04/06 07:01:04;;;;;;;4.67;3.40;;;25.10;47.60;;;;;;6275267;28;20227;-62
2022/04/06 07:04:07;;;;;;;10.67;3.77;;;25.80;44.40;;;;;;6274538;28;20235;-63
2022/04/06 07:07:10;;;;;;;5.60;3.60;;;26.80;41.60;;;;;;6274962;28;20235;-64
2022/04/06 07:10:18;;;;;;;4.43;3.40;;;27.50;39.10;;;;;;6274985;28;20705;-63
2022/04/06 07:13:21;;;;;;;4.40;3.47;;;28.30;36.50;;;;;;6274732;28;20535;-63
2022/04/06 07:16:26;;;;;;;6.40;3.73;;;29.00;36.00;;;;;;6274730;28;20227;-63
2022/04/06 07:19:30;;;;;;;4.50;4.10;;;29.80;32.90;;;;;;6275063;28;20231;-63
2022/04/06 07:22:33;;;;;;;4.80;4.27;;;30.40;30.90;;;;;;6274821;28;20231;-62
2022/04/06 07:25:36;;;;;;;4.50;4.10;;;31.00;29.80;;;;;;6274725;28;20227;-65
2022/04/06 07:28:39;;;;;;;5.90;3.93;;;31.80;29.20;;;;;;6270818;28;20231;-64
2022/04/06 07:31:44;;;;;;;5.73;4.40;;;32.70;27.90;;;;;;6275062;28;20231;-65
2022/04/06 07:34:47;;;;;;;5.13;4.67;;;31.60;27.40;;;;;;6276236;28;20242;-63
2022/04/06 07:37:52;;;;;;;5.20;4.70;;;31.40;27.30;;;;;;6275822;28;20230;-63
2022/04/06 07:40:55;;;;;;;4.63;4.23;;;31.20;28.50;;;;;;6274411;28;20227;-62
2022/04/06 07:44:00;;;;;;;5.10;4.70;;;30.90;27.70;;;;;;6269483;28;20242;-64
2022/04/06 07:47:05;;;;;;;5.38;4.88;;;31.20;28.20;;;;;;6274281;28;20242;-64
2022/04/06 07:50:09;;;;;;;6.00;5.40;;;32.90;27.10;;;;;;6274162;28;20242;-63
2022/04/06 07:53:12;;;;;;;8.32;6.80;;;33.80;27.00;;;;;;6274168;28;20246;-64
2022/04/06 07:56:15;;;;;;;6.78;6.05;;;34.80;26.00;;;;;;6275172;28;20242;-66
2022/04/06 07:59:18;;;;;;;8.40;6.53;;;35.30;25.10;;;;;;6272389;28;20231;-65
2022/04/06 08:02:23;;;;;;;6.93;6.35;;;35.90;24.20;;;;;;6272110;28;20249;-63
2022/04/06 08:05:26;;;;;;;5.97;5.47;;;36.80;23.60;;;;;;6272142;28;20227;-61
2022/04/06 08:08:29;;;;;;;5.50;5.20;;;36.90;22.90;;;;;;6272441;28;20242;-62
2022/04/06 08:11:32;;;;;;;6.03;4.70;;;37.60;22.10;;;;;;6276721;28;20235;-61
2022/04/06 08:14:35;;;;;;;6.55;5.30;;;38.30;21.60;;;;;;6278187;28;20231;-63
2022/04/06 08:17:42;;;;;;;4.78;3.50;;;38.80;21.20;;;;;;6281041;28;20554;-62
2022/04/06 08:20:45;;;;;;;6.15;4.15;;;39.60;20.40;;;;;;6328341;28;20206;-62
2022/04/06 08:23:48;;;;;;;4.22;3.80;;;39.60;20.50;;;;;;6328158;28;20241;-61
2022/04/06 08:26:51;;;;;;;3.88;3.65;;;39.70;20.30;;;;;;6328228;28;20225;-61
2022/04/06 08:29:54;;;;;;;5.70;4.95;;;40.50;19.80;;;;;;6327716;28;20315;-65
2022/04/06 08:32:59;;;;;;;5.53;4.82;;;39.60;20.00;;;;;;6327779;28;20222;-62
2022/04/06 08:36:06;;;;;;;6.35;5.10;;;39.50;20.30;;;;;;6327579;28;20226;-65
2022/04/06 08:39:09;;;;;;;4.25;3.80;;;40.30;19.90;;;;;;6328142;28;20225;-63
2022/04/06 08:42:12;;;;;;;4.28;3.88;;;41.40;19.10;;;;;;6327927;28;20238;-63
2022/04/06 08:45:36;;;;;;;6.10;3.70;;;42.30;18.60;;;;;;6326830;28;20279;-66
2022/04/06 08:48:41;;;;;;;6.95;4.82;;;43.10;18.10;;;;;;6327309;28;20240;-62
2022/04/06 08:51:46;;;;;;;5.18;4.32;;;43.60;17.40;;;;;;6327965;28;20230;-65
2022/04/06 08:54:49;;;;;;;3.63;3.33;;;44.10;17.00;;;;;;6327293;28;20230;-65
2022/04/06 08:57:52;;;;;;;4.47;4.13;;;44.70;16.70;;;;;;6327198;28;20221;-65
2022/04/06 09:00:55;;;;;;;3.55;3.25;;;45.40;16.40;;;;;;6327588;28;20225;-63
2022/04/06 09:04:01;;;;;;;3.60;3.22;;;45.40;16.10;;;;;;6326768;28;20233;-63
2022/04/06 09:07:26;;;;;;;2.78;2.55;;;46.10;15.60;;;;;;6327059;28;20297;-64
2022/04/06 09:10:33;;;;;;;2.72;2.53;;;46.50;15.00;;;;;;6326727;28;20234;-62
2022/04/06 09:13:36;;;;;;;3.92;2.47;;;46.30;14.90;;;;;;6327276;28;20383;-65
2022/04/06 09:16:39;;;;;;;2.75;2.55;;;46.70;15.50;;;;;;6327319;28;20275;-64
2022/04/06 09:19:48;;;;;;;3.92;2.80;;;47.50;14.40;;;;;;6345653;28;20670;-63
2022/04/06 09:22:51;;;;;;;3.08;2.78;;;47.60;14.00;;;;;;6325747;28;20234;-63
2022/04/06 09:25:54;;;;;;;3.45;3.15;;;47.70;14.10;;;;;;6326518;28;20238;-63
2022/04/06 09:28:57;;;;;;;2.72;2.53;;;47.90;13.80;;;;;;6326513;28;20662;-62
2022/04/06 09:32:08;;;;;;;3.33;3.08;;;48.50;13.60;;;;;;6326342;28;20701;-62
2022/04/06 09:35:34;;;;;;;3.65;3.35;;;48.50;13.50;;;;;;6326370;28;20234;-62
2022/04/06 09:38:42;;;;;;;4.20;3.80;;;48.50;13.60;;;;;;6326784;28;20310;-62
2022/04/06 09:41:59;;;;;;;4.80;4.28;;;48.60;13.30;;;;;;6326873;28;20218;-63
2022/04/06 09:48:23;;;;;;;5.13;4.68;;;47.80;13.50;;;;;;6326554;28;20230;-66
2022/04/06 09:51:29;;;;;;;5.60;4.97;;;47.50;13.60;;;;;;6325793;28;20670;-63
2022/04/06 09:54:35;;;;;;;5.35;4.88;;;46.60;14.10;;;;;;6326543;28;20245;-63
2022/04/06 09:57:42;;;;;;;5.35;4.95;;;45.40;14.60;;;;;;6326228;28;20229;-62
2022/04/06 10:00:45;;;;;;;5.40;4.88;;;43.60;15.30;;;;;;6325984;28;20236;-62
2022/04/06 10:03:53;;;;;;;9.68;5.57;;;41.50;16.30;;;;;;6325360;28;20233;-66
2022/04/06 10:06:59;;;;;;;7.90;5.97;;;39.60;17.40;;;;;;6325272;28;20554;-65
2022/04/06 10:10:02;;;;;;;6.75;6.35;;;37.60;18.50;;;;;;6325891;28;20249;-64
2022/04/06 10:13:07;;;;;;;7.03;6.43;;;34.60;20.60;;;;;;6317142;28;20263;-64
2022/04/06 10:16:31;;;;;;;6.07;5.50;;;33.00;22.10;;;;;;6325383;28;20690;-64
2022/04/06 10:19:40;;;;;;;6.28;5.70;;;31.70;23.30;;;;;;6325525;28;20235;-65
2022/04/06 10:23:03;;;;;;;7.50;6.80;;;30.70;25.00;;;;;;6325337;28;20240;-66
2022/04/06 10:26:20;;;;;;;7.20;6.60;;;29.10;25.60;;;;;;6325408;28;20230;-63
2022/04/06 10:29:26;;;;;;;8.07;7.10;;;27.80;27.60;;;;;;6325515;28;20616;-65
2022/04/06 10:32:35;;;;;;;7.17;6.57;;;26.80;28.20;;;;;;6323214;28;20253;-65
2022/04/06 10:35:39;;;;;;;7.10;6.50;;;25.60;29.90;;;;;;6323666;28;20234;-64
2022/04/06 10:39:12;;;;;;;7.07;6.57;;;25.00;31.10;;;;;;6323838;28;20214;-64
2022/04/06 10:42:19;;;;;;;8.10;7.40;;;25.00;31.30;;;;;;6323466;28;20238;-64
2022/04/06 10:45:36;;;;;;;7.70;7.00;;;24.40;32.00;;;;;;6324524;28;20647;-62
2022/04/06 10:48:57;;;;;;;8.10;7.30;;;23.80;33.10;;;;;;6325067;28;20253;-63
2022/04/06 10:52:17;;;;;;;9.60;8.80;;;23.60;34.00;;;;;;6325174;28;20245;-63
2022/04/06 10:55:25;;;;;;;7.77;7.07;;;23.70;33.80;;;;;;6320523;28;20572;-64
2022/04/06 10:58:29;;;;;;;8.60;7.80;;;23.60;34.00;;;;;;6325336;28;20242;-64
2022/04/06 11:01:33;;;;;;;8.03;7.13;;;23.60;33.80;;;;;;6325823;28;20234;-64
2022/04/06 11:04:40;;;;;;;9.63;8.63;;;23.70;33.80;;;;;;6324843;28;20234;-65
2022/04/06 11:11:35;;;;;;;8.40;7.57;;;23.70;34.40;;;;;;6325404;28;20549;-64
2022/04/06 11:14:39;;;;;;;9.17;8.37;;;23.60;34.80;;;;;;6317204;28;20246;-64
2022/04/06 11:17:44;;;;;;;8.27;7.57;;;23.50;34.40;;;;;;6324125;28;20218;-64
2022/04/06 11:20:47;;;;;;;9.17;8.30;;;23.20;34.70;;;;;;6324812;28;20229;-64
2022/04/06 11:23:52;;;;;;;8.80;8.10;;;23.30;36.00;;;;;;6326799;28;20569;-64
2022/04/06 11:26:56;;;;;;;7.50;6.87;;;23.30;35.40;;;;;;6327058;28;20233;-64
2022/04/06 11:30:02;;;;;;;8.90;8.10;;;23.50;35.50;;;;;;6330960;28;20236;-64
2022/04/06 11:33:06;;;;;;;8.37;7.57;;;23.20;36.10;;;;;;6331517;28;20227;-64
2022/04/06 11:36:13;;;;;;;8.23;7.57;;;23.20;35.80;;;;;;6329601;28;20237;-64
2022/04/06 11:39:16;;;;;;;9.70;8.90;;;23.00;36.00;;;;;;6326760;28;20233;-64
2022/04/06 11:42:21;;;;;;;7.97;7.27;;;22.90;36.20;;;;;;6325908;28;20234;-65
2022/04/06 11:45:27;;;;;;;8.50;7.70;;;22.60;36.40;;;;;;6327712;28;20233;-65
2022/04/06 11:48:39;;;;;;;7.73;7.13;;;22.50;36.50;;;;;;6328714;28;20231;-64
2022/04/06 11:51:45;;;;;;;8.97;8.27;;;22.20;37.60;;;;;;6308834;28;20225;-63
2022/04/06 11:54:52;;;;;;;10.70;8.60;;;22.40;37.20;;;;;;6320474;28;20253;-63
2022/04/06 11:57:56;;;;;;;8.00;7.37;;;22.60;37.20;;;;;;6304767;28;20560;-63
2022/04/06 12:01:02;;;;;;;8.13;7.43;;;22.60;37.00;;;;;;6307313;28;20245;-64
2022/04/06 12:04:13;;;;;;;7.10;6.50;;;22.10;36.30;;;;;;6303134;28;20697;-64
2022/04/06 12:07:20;;;;;;;7.33;6.73;;;22.10;37.40;;;;;;6303427;28;20535;-65
2022/04/06 12:10:24;;;;;;;8.83;6.97;;;22.50;37.20;;;;;;6324641;28;20237;-65
2022/04/06 12:13:29;;;;;;;8.50;7.77;;;22.60;36.80;;;;;;6328575;28;20239;-66
2022/04/06 12:16:35;;;;;;;8.10;7.40;;;22.50;37.20;;;;;;6328367;28;20237;-65
2022/04/06 12:19:38;;;;;;;8.87;8.17;;;22.40;37.60;;;;;;6314052;28;20227;-64
2022/04/06 12:22:41;;;;;;;10.17;8.73;;;22.50;37.30;;;;;;6302982;28;20238;-65
2022/04/06 12:25:45;;;;;;;8.83;8.13;;;22.60;36.90;;;;;;6309892;28;20237;-65
2022/04/06 12:28:49;;;;;;;8.00;7.37;;;22.90;36.90;;;;;;6328120;28;20230;-64
2022/04/06 12:31:54;;;;;;;8.23;7.53;;;23.10;36.30;;;;;;6327972;28;20222;-63
2022/04/06 12:34:57;;;;;;;7.93;7.23;;;22.70;36.60;;;;;;6327834;28;20222;-64
2022/04/06 12:38:00;;;;;;;6.83;6.33;;;22.50;36.70;;;;;;6328539;28;20231;-64
2022/04/06 12:41:05;;;;;;;9.40;8.60;;;22.30;36.20;;;;;;6327890;28;20234;-64
2022/04/06 12:44:23;;;;;;;9.27;8.30;;;22.00;37.70;;;;;;6329528;28;20241;-64
2022/04/06 12:47:28;;;;;;;7.90;7.20;;;22.10;38.00;;;;;;6304124;28;20243;-65
2022/04/06 12:50:37;;;;;;;7.90;5.70;;;22.40;37.70;;;;;;6302749;28;20230;-65
2022/04/06 12:53:46;;;;;;;9.43;8.63;;;22.70;37.00;;;;;;6311067;28;20562;-64
2022/04/06 12:57:04;;;;;;;8.30;7.60;;;22.50;37.30;;;;;;6302413;28;20211;-65
2022/04/06 13:00:09;;;;;;;5.60;5.20;;;22.20;37.00;;;;;;6310715;28;20245;-65
2022/04/06 13:03:18;;;;;;;7.00;6.30;;;22.10;36.30;;;;;;6322059;28;20227;-68
2022/04/06 13:06:21;;;;;;;6.33;5.83;;;22.30;36.70;;;;;;6327032;28;20225;-67
2022/04/06 13:09:24;;;;;;;10.87;6.20;;;22.50;36.80;;;;;;6330363;28;20231;-67
2022/04/06 13:12:29;;;;;;;7.60;6.90;;;22.60;37.50;;;;;;6328800;28;20253;-66
2022/04/06 13:15:33;;;;;;;7.50;6.90;;;22.80;36.80;;;;;;6326802;28;20245;-65
2022/04/06 13:18:37;;;;;;;8.03;7.33;;;22.70;37.70;;;;;;6326642;28;20292;-65
2022/04/06 13:21:40;;;;;;;7.67;7.07;;;22.50;37.80;;;;;;6327556;28;20222;-65
2022/04/06 13:24:44;;;;;;;12.20;8.13;;;22.60;38.50;;;;;;6327395;28;20243;-66
2022/04/06 13:27:48;;;;;;;8.43;7.73;;;22.80;38.00;;;;;;6326593;28;20340;-65
2022/04/06 13:30:51;;;;;;;8.07;7.40;;;22.80;38.10;;;;;;6326649;28;20230;-65
2022/04/06 13:33:56;;;;;;;9.10;8.20;;;22.60;37.90;;;;;;6326498;28;20678;-66
2022/04/06 13:36:59;;;;;;;9.37;8.57;;;22.60;37.50;;;;;;6326764;28;20230;-66
2022/04/06 13:40:03;;;;;;;8.40;7.80;;;22.50;38.00;;;;;;6326021;28;20227;-66
2022/04/06 13:43:06;;;;;;;10.20;9.40;;;22.10;39.10;;;;;;6324574;28;20249;-67
2022/04/06 13:46:09;;;;;;;8.20;7.53;;;21.90;39.00;;;;;;6312773;28;20231;-66
2022/04/06 13:49:13;;;;;;;10.40;9.60;;;21.90;39.30;;;;;;6300603;28;20242;-66
2022/04/06 13:52:16;;;;;;;10.10;9.30;;;21.80;40.40;;;;;;6304463;28;20222;-65
2022/04/06 13:55:22;;;;;;;10.40;9.60;;;21.70;40.90;;;;;;6308990;28;20223;-64
2022/04/06 13:58:26;;;;;;;10.50;9.60;;;21.70;41.30;;;;;;6325570;28;20241;-65
2022/04/06 14:01:29;;;;;;;10.03;9.10;;;21.40;41.30;;;;;;6310831;28;20227;-65
2022/04/06 14:04:33;;;;;;;8.80;7.97;;;21.30;41.60;;;;;;6300278;28;20549;-64
2022/04/06 14:07:36;;;;;;;9.13;8.30;;;21.30;41.50;;;;;;6300267;28;20361;-67
2022/04/06 14:10:39;;;;;;;9.60;8.80;;;21.40;41.40;;;;;;6320667;28;20242;-65
2022/04/06 14:13:43;;;;;;;8.33;7.53;;;21.50;41.20;;;;;;6325449;28;20245;-65
2022/04/06 14:16:46;;;;;;;7.10;6.60;;;21.60;41.60;;;;;;6325677;28;20337;-65
2022/04/06 14:19:51;;;;;;;9.17;8.33;;;21.50;41.50;;;;;;6325181;28;20219;-65
2022/04/06 14:22:54;;;;;;;9.63;8.73;;;21.40;40.70;;;;;;6325935;28;20693;-66
2022/04/06 14:25:57;;;;;;;10.70;9.70;;;21.40;41.10;;;;;;6325413;28;20222;-66
2022/04/06 14:29:00;;;;;;;9.07;8.27;;;21.40;41.60;;;;;;6345702;28;20260;-66
2022/04/06 14:32:04;;;;;;;9.13;8.33;;;21.40;41.60;;;;;;6328369;28;20558;-65
2022/04/06 14:35:10;;;;;;;9.13;8.23;;;21.50;42.50;;;;;;6325591;28;20600;-66
2022/04/06 14:38:14;;;;;;;11.57;10.47;;;21.50;42.40;;;;;;6325481;28;20253;-66
2022/04/06 14:41:17;;;;;;;10.70;9.80;;;21.40;42.80;;;;;;6325698;28;20546;-65
2022/04/06 14:44:20;;;;;;;11.70;10.70;;;21.10;43.60;;;;;;6325241;28;20670;-68
2022/04/06 14:47:25;;;;;;;11.93;10.10;;;21.20;44.40;;;;;;6303443;28;20231;-71
2022/04/06 14:50:29;;;;;;;10.73;9.83;;;21.10;43.90;;;;;;6301708;28;20227;-67
2022/04/06 14:53:33;;;;;;;11.27;10.47;;;21.10;43.80;;;;;;6315320;28;20326;-68
2022/04/06 14:56:38;;;;;;;10.07;9.27;;;21.20;43.30;;;;;;6311989;28;20219;-67
2022/04/06 14:59:44;;;;;;;9.97;9.17;;;21.30;43.40;;;;;;6322140;28;20286;-67
2022/04/06 15:02:47;;;;;;;10.57;9.57;;;21.10;42.70;;;;;;6326669;28;20245;-67
2022/04/06 15:05:52;;;;;;;10.10;9.30;;;21.20;42.30;;;;;;6325249;28;20209;-67
2022/04/06 15:08:55;;;;;;;9.80;9.00;;;21.10;42.30;;;;;;6325256;28;20535;-67
2022/04/06 15:11:58;;;;;;;9.63;8.87;;;21.00;42.40;;;;;;6303885;28;20218;-67
2022/04/06 15:15:01;;;;;;;9.97;8.93;;;21.00;42.30;;;;;;6299687;28;20213;-67
2022/04/06 15:18:05;;;;;;;10.27;9.33;;;21.00;42.40;;;;;;6299555;28;20223;-67
2022/04/06 15:21:10;;;;;;;8.20;7.43;;;21.00;41.40;;;;;;6303129;28;20690;-67
2022/04/06 15:24:15;;;;;;;13.73;8.90;;;20.90;41.40;;;;;;6304925;28;20238;-64
2022/04/06 15:27:18;;;;;;;9.40;8.57;;;21.00;41.10;;;;;;6322393;28;20236;-65
2022/04/06 15:30:21;;;;;;;8.67;7.77;;;21.00;40.70;;;;;;6305899;28;20675;-67
2022/04/06 15:33:25;;;;;;;9.50;8.70;;;20.90;40.40;;;;;;6304120;28;20694;-67
2022/04/06 15:39:51;;;;;;;9.53;8.53;;;21.00;40.50;;;;;;6304529;28;20233;-67
2022/04/06 15:42:54;;;;;;;9.80;8.83;;;21.10;40.00;;;;;;6304479;28;20235;-67
2022/04/06 15:45:58;;;;;;;9.40;8.40;;;21.10;40.00;;;;;;6303784;28;20230;-68
2022/04/06 15:49:02;;;;;;;9.37;8.23;;;21.10;39.10;;;;;;6303750;28;20564;-67
2022/04/06 15:52:06;;;;;;;9.03;8.20;;;21.10;39.00;;;;;;6306931;28;20239;-67
2022/04/06 15:55:10;;;;;;;8.70;7.80;;;21.00;39.10;;;;;;6318305;28;20222;-67
2022/04/06 15:58:16;;;;;;;8.73;7.93;;;21.00;40.60;;;;;;6330867;28;20253;-67
2022/04/06 16:01:19;;;;;;;9.57;8.60;;;21.10;39.00;;;;;;6329842;28;20234;-65
2022/04/06 16:04:23;;;;;;;9.27;8.20;;;21.20;38.10;;;;;;6329159;28;20234;-67
2022/04/06 16:07:28;;;;;;;7.80;7.00;;;21.00;37.90;;;;;;6329403;28;20245;-67
2022/04/06 16:10:31;;;;;;;9.10;8.20;;;20.80;38.40;;;;;;6328929;28;20231;-65
2022/04/06 16:13:34;;;;;;;8.17;7.37;;;20.70;38.70;;;;;;6320509;28;20249;-64
2022/04/06 16:16:38;;;;;;;8.57;7.77;;;20.60;39.20;;;;;;6292321;28;20234;-65
2022/04/06 16:19:42;;;;;;;8.77;7.40;;;20.70;38.70;;;;;;6308058;28;20287;-63